createdAt,value
2022-08-17T00:03:08.485Z,99712.27
2022-08-17T00:08:15.548Z,99711.60
2022-08-17T00:13:33.145Z,99706.34
2022-08-17T00:18:58.403Z,99703.02
2022-08-17T00:23:59.686Z,99702.98
2022-08-17T00:29:02.855Z,99700.02
2022-08-17T00:34:09.432Z,99697.65
2022-08-17T00:39:12.583Z,99697.13
2022-08-17T00:44:16.580Z,99702.46
2022-08-17T00:49:19.992Z,99705.80
2022-08-17T00:54:31.493Z,99715.64
2022-08-17T00:59:39.213Z,99715.98
2022-08-17T01:04:46.512Z,99718.40
2022-08-17T01:09:51.511Z,99716.98
2022-08-17T01:14:54.587Z,99718.88
2022-08-17T01:19:57.929Z,99722.59
2022-08-17T01:25:03.688Z,99726.41
2022-08-17T01:30:57.465Z,99732.23
2022-08-17T01:35:34.050Z,99732.89
2022-08-17T01:40:44.072Z,99732.61
2022-08-17T01:46:03.002Z,99734.00
2022-08-17T01:51:07.723Z,99735.61
2022-08-17T01:56:13.844Z,99738.05
2022-08-17T02:01:25.469Z,99741.24
2022-08-17T02:06:53.661Z,99735.52
2022-08-17T02:12:00.213Z,99729.91
2022-08-17T02:17:24.829Z,99721.58
2022-08-17T02:22:28.938Z,99728.29
2022-08-17T02:27:31.943Z,99730.17
2022-08-17T02:32:35.002Z,99721.38
2022-08-17T02:37:37.877Z,99719.67
2022-08-17T02:42:44.079Z,99719.95
2022-08-17T02:47:47.546Z,99715.18
2022-08-17T02:53:01.948Z,99719.34
2022-08-17T02:58:06.135Z,99721.42
2022-08-17T03:03:13.727Z,99716.98
2022-08-17T03:08:19.117Z,99709.61
2022-08-17T03:13:22.529Z,99712.50
2022-08-17T03:18:27.344Z,99714.60
2022-08-17T03:23:32.628Z,99721.10
2022-08-17T03:28:35.912Z,99721.91
2022-08-17T03:33:39.424Z,99725.45
2022-08-17T03:38:42.480Z,99729.48
2022-08-17T03:43:48.064Z,99731.94
2022-08-17T03:49:09.540Z,99729.46
2022-08-17T03:54:30.986Z,99725.10
2022-08-17T03:59:34.914Z,99733.14
2022-08-17T04:04:39.262Z,99738.96
2022-08-17T04:09:43.214Z,99744.77
2022-08-17T04:14:52.640Z,99742.09
2022-08-17T04:19:57.627Z,99747.86
2022-08-17T04:25:06.989Z,99744.63
2022-08-17T04:30:10.750Z,99746.52
2022-08-17T04:35:19.136Z,99746.27
2022-08-17T04:40:42.739Z,99751.55
2022-08-17T04:45:55.067Z,99750.33
2022-08-17T04:51:00.284Z,99747.84
2022-08-17T04:56:04.005Z,99753.05
2022-08-17T05:01:07.564Z,99749.98
2022-08-17T05:06:11.169Z,99757.30
2022-08-17T05:11:15.049Z,99754.66
2022-08-17T05:16:19.731Z,99755.56
2022-08-17T05:21:23.458Z,99762.05
2022-08-17T05:26:28.727Z,99765.80
2022-08-17T05:31:32.567Z,99767.58
2022-08-17T05:36:41.763Z,99762.91
2022-08-17T05:41:48.142Z,99763.41
2022-08-17T05:46:54.265Z,99762.92
2022-08-17T05:52:02.253Z,99770.95
2022-08-17T05:57:18.195Z,99766.61
2022-08-17T06:02:30.252Z,99771.80
2022-08-17T06:07:48.374Z,99766.19
2022-08-17T06:13:12.773Z,99769.13
2022-08-17T06:18:19.366Z,99778.00
2022-08-17T06:23:39.696Z,99777.54
2022-08-17T06:29:00.025Z,99773.45
2022-08-17T06:34:06.673Z,99771.96
2022-08-17T06:39:20.180Z,99782.50
2022-08-17T06:44:51.262Z,99796.63
2022-08-17T06:50:08.470Z,99802.60
2022-08-17T06:55:24.779Z,99806.48
2022-08-17T07:00:35.597Z,99805.91
2022-08-17T07:05:44.129Z,99806.53
2022-08-17T07:10:55.815Z,99803.85
2022-08-17T07:16:11.445Z,99793.38
2022-08-17T07:21:31.888Z,99789.52
2022-08-17T07:26:34.887Z,99779.27
2022-08-17T07:31:37.960Z,99774.38
2022-08-17T07:36:44.205Z,99781.57
2022-08-17T07:41:57.519Z,99784.33
2022-08-17T07:47:20.673Z,99789.11
2022-08-17T07:52:51.099Z,99791.82
2022-08-17T07:57:57.899Z,99795.60
2022-08-17T08:03:14.271Z,99797.27
2022-08-17T08:08:44.779Z,99796.45
2022-08-17T08:13:50.094Z,99787.23
2022-08-17T08:19:03.989Z,99785.02
2022-08-17T08:24:31.438Z,99788.45
2022-08-17T08:29:53.155Z,99788.45
2022-08-17T08:35:33.821Z,99787.52
2022-08-17T08:40:52.477Z,99785.14
2022-08-17T08:46:19.572Z,99786.21
2022-08-17T08:51:33.068Z,99784.84
2022-08-17T08:57:19.731Z,99774.90
2022-08-17T09:02:34.646Z,99771.67
2022-08-17T09:08:10.416Z,99766.83
2022-08-17T09:13:32.069Z,99773.16
2022-08-17T09:19:01.610Z,99778.11
2022-08-17T09:24:20.687Z,99778.17
2022-08-17T09:29:26.549Z,99772.69
2022-08-17T09:34:40.053Z,99764.78
2022-08-17T09:40:09.838Z,99762.67
2022-08-17T09:45:34.254Z,99767.52
2022-08-17T09:51:05.073Z,99769.98
2022-08-17T09:56:45.599Z,99772.88
2022-08-17T10:02:07.171Z,99769.36
2022-08-17T10:07:19.291Z,99776.91
2022-08-17T10:12:46.432Z,99772.23
2022-08-17T10:18:22.529Z,99775.22
2022-08-17T10:23:48.700Z,99778.77
2022-08-17T10:29:04.484Z,99774.48
2022-08-17T10:34:23.061Z,99771.08
2022-08-17T10:39:54.607Z,99779.42
2022-08-17T10:45:16.500Z,99779.80
2022-08-17T10:50:49.817Z,99772.95
2022-08-17T10:56:11.671Z,99775.86
2022-08-17T11:01:14.621Z,99768.67
2022-08-17T11:06:22.593Z,99769.77
2022-08-17T11:11:59.950Z,99767.30
2022-08-17T11:17:15.654Z,99764.88
2022-08-17T11:22:49.593Z,99763.98
2022-08-17T11:28:14.190Z,99758.56
2022-08-17T11:33:44.956Z,99762.91
2022-08-17T11:39:00.797Z,99763.36
2022-08-17T11:44:18.905Z,99761.89
2022-08-17T11:50:04.809Z,99758.41
2022-08-17T11:55:34.503Z,99758.98
2022-08-17T12:00:46.012Z,99761.38
2022-08-17T12:05:52.656Z,99759.78
2022-08-17T12:11:01.052Z,99766.67
2022-08-17T12:16:05.249Z,99754.55
2022-08-17T12:21:27.628Z,99751.69
2022-08-17T12:26:33.366Z,99758.63
2022-08-17T12:31:44.538Z,99764.40
2022-08-17T12:36:51.520Z,99764.39
2022-08-17T12:42:02.117Z,99765.92
2022-08-17T12:47:22.178Z,99768.92
2022-08-17T12:52:29.769Z,99774.05
2022-08-17T12:57:45.845Z,99777.55
2022-08-17T13:03:00.866Z,99776.20
2022-08-17T13:08:20.487Z,99771.97
2022-08-17T13:13:26.830Z,99772.77
2022-08-17T13:18:43.878Z,99766.92
2022-08-17T13:24:03.325Z,99767.61
2022-08-17T13:29:29.367Z,99766.66
2022-08-17T13:35:13.524Z,99761.23
2022-08-17T13:40:19.452Z,99757.55
2022-08-17T13:45:34.823Z,99754.05
2022-08-17T13:50:45.357Z,99756.30
2022-08-17T13:55:58.659Z,99758.86
2022-08-17T14:01:31.765Z,99757.14
2022-08-17T14:06:53.705Z,99751.77
2022-08-17T14:11:58.377Z,99748.36
2022-08-17T14:17:01.405Z,99745.11
2022-08-17T14:22:08.973Z,99746.21
2022-08-17T14:27:12.277Z,99749.34
2022-08-17T14:32:23.155Z,99751.55
2022-08-17T14:37:28.025Z,99754.51
2022-08-17T14:42:34.418Z,99752.30
2022-08-17T14:47:39.380Z,99751.44
2022-08-17T14:52:42.789Z,99753.54
2022-08-17T14:57:45.773Z,99759.43
2022-08-17T15:02:54.278Z,99760.00
2022-08-17T15:07:59.070Z,99752.91
2022-08-17T15:13:02.189Z,99756.23
2022-08-17T15:18:05.266Z,99756.80
2022-08-17T15:23:12.593Z,99758.15
2022-08-17T15:28:16.955Z,99753.69
2022-08-17T15:33:35.295Z,99749.11
2022-08-17T15:38:39.916Z,99749.68
2022-08-17T15:43:44.641Z,99750.80
2022-08-17T15:48:51.055Z,99746.52
2022-08-17T15:54:19.119Z,99751.62
2022-08-17T15:59:45.969Z,99756.14
2022-08-17T16:04:49.514Z,99760.54
2022-08-17T16:09:54.913Z,99758.85
2022-08-17T16:15:01.497Z,99762.99
2022-08-17T16:20:06.076Z,99763.06
2022-08-17T16:25:18.977Z,99766.52
2022-08-17T16:30:25.160Z,99772.83
2022-08-17T16:35:28.235Z,99774.70
2022-08-17T16:40:35.833Z,99772.86
2022-08-17T16:45:40.942Z,99771.85
2022-08-17T16:50:44.228Z,99774.85
2022-08-17T17:01:09.228Z,99775.30
2022-08-17T17:06:36.653Z,99780.14
2022-08-17T17:11:48.217Z,99785.89
2022-08-17T17:17:13.762Z,99789.92
2022-08-17T17:22:31.414Z,99793.72
2022-08-17T17:27:47.584Z,99799.34
2022-08-17T17:33:12.382Z,99800.43
2022-08-17T17:38:29.233Z,99801.49
2022-08-17T17:43:39.548Z,99805.77
2022-08-17T17:48:43.532Z,99811.68
2022-08-17T17:54:07.322Z,99822.87
2022-08-17T17:59:26.881Z,99826.93
2022-08-17T18:04:37.542Z,99826.71
2022-08-17T18:09:53.793Z,99832.94
2022-08-17T18:15:29.867Z,99838.17
2022-08-17T18:20:43.123Z,99846.29
2022-08-17T18:25:58.875Z,99850.11
2022-08-17T18:31:13.162Z,99853.80
2022-08-17T18:36:34.228Z,99862.16
2022-08-17T18:41:43.651Z,99863.88
2022-08-17T18:46:46.743Z,99861.54
2022-08-17T18:52:07.015Z,99859.14
2022-08-17T18:57:12.450Z,99871.84
2022-08-17T19:02:23.198Z,99874.91
2022-08-17T19:07:37.435Z,99876.16
2022-08-17T19:12:43.323Z,99879.58
2022-08-17T19:18:02.066Z,99886.63
2022-08-17T19:23:27.689Z,99898.59
2022-08-17T19:28:56.827Z,99897.72
2022-08-17T19:34:01.882Z,99898.34
2022-08-17T19:39:38.137Z,99900.57
2022-08-17T19:45:10.821Z,99904.65
2022-08-17T19:50:38.707Z,99915.92
2022-08-17T19:55:56.901Z,99927.23
2022-08-17T20:01:00.195Z,99935.96
2022-08-17T20:06:14.809Z,99943.23
2022-08-17T20:11:26.157Z,99950.59
2022-08-17T20:16:29.382Z,99952.68
2022-08-17T20:21:44.141Z,99956.16
2022-08-17T20:26:55.463Z,99947.72
2022-08-17T20:32:14.603Z,99949.78
2022-08-17T20:37:17.479Z,99956.58
2022-08-17T20:42:20.461Z,99955.88
2022-08-17T20:48:00.863Z,99958.98
2022-08-17T20:53:09.114Z,99955.16
2022-08-17T20:58:14.968Z,99961.77
2022-08-17T21:03:23.435Z,99965.33
2022-08-17T21:08:36.878Z,99961.10
2022-08-17T21:14:07.195Z,99961.73
2022-08-17T21:19:22.392Z,99962.34
2022-08-17T21:24:36.632Z,99965.63
2022-08-17T21:30:10.049Z,99971.73
2022-08-17T21:35:19.419Z,99977.00
2022-08-17T21:40:27.405Z,99970.39
2022-08-17T21:45:35.677Z,99968.73
2022-08-17T21:50:41.787Z,99978.21
2022-08-17T21:55:48.979Z,99967.17
2022-08-17T22:01:21.856Z,99959.30
2022-08-17T22:06:30.172Z,99954.81
2022-08-17T22:11:58.251Z,99957.38
2022-08-17T22:17:10.267Z,99953.21
2022-08-17T22:22:22.104Z,99942.80
2022-08-17T22:27:49.356Z,99931.64
2022-08-17T22:32:53.384Z,99931.61
2022-08-17T22:37:57.849Z,99932.08
2022-08-17T22:43:05.708Z,99926.81
2022-08-17T22:48:11.835Z,99935.83
2022-08-17T22:53:42.407Z,99939.36
2022-08-17T22:59:14.442Z,99944.55
2022-08-17T23:04:39.024Z,99939.15
2022-08-17T23:09:42.253Z,99938.78
2022-08-17T23:14:47.094Z,99942.52
2022-08-17T23:19:50.006Z,99945.03
2022-08-17T23:24:52.957Z,99937.63
2022-08-17T23:29:56.320Z,99936.02
2022-08-17T23:34:59.275Z,99937.59
2022-08-17T23:40:05.078Z,99943.34
2022-08-17T23:45:08.817Z,99947.61
2022-08-17T23:50:11.667Z,99948.63
2022-08-17T23:55:14.760Z,99947.08
